TimeCST,TemperatureF,Dew PointF,Humidity,Sea Level PressureIn,VisibilityMPH,Wind Direction,Wind SpeedMPH,Gust SpeedMPH,PrecipitationIn,Events,Conditions,WindDirDegrees,DateUTC
12:53 AM,45.0,34.0,65,30.07,10.0,NE,4.6,-,N/A,,Clear,50,2013-02-07 06:53:00
1:53 AM,44.1,35.1,71,30.05,10.0,NE,4.6,-,N/A,,Mostly Cloudy,50,2013-02-07 07:53:00
2:53 AM,42.1,35.1,76,30.04,10.0,NE,3.5,-,N/A,,Scattered Clouds,40,2013-02-07 08:53:00
3:53 AM,42.1,34.0,73,30.01,10.0,NE,4.6,-,N/A,,Clear,40,2013-02-07 09:53:00
4:53 AM,43.0,33.1,68,30.00,10.0,East,4.6,-,N/A,,Overcast,90,2013-02-07 10:53:00
5:53 AM,39.9,34.0,79,30.00,10.0,North,3.5,-,N/A,,Overcast,360,2013-02-07 11:53:00
6:53 AM,43.0,34.0,71,29.99,10.0,Calm,Calm,-,N/A,,Overcast,0,2013-02-07 12:53:00
7:53 AM,44.1,35.1,71,29.99,10.0,NE,3.5,-,N/A,,Overcast,40,2013-02-07 13:53:00
8:53 AM,46.9,37.0,68,29.99,10.0,Calm,Calm,-,N/A,,Overcast,0,2013-02-07 14:53:00
9:53 AM,50.0,37.9,63,29.98,10.0,Calm,Calm,-,N/A,,Overcast,0,2013-02-07 15:53:00
10:40 AM,51.8,37.4,58,29.97,9.0,Calm,Calm,-,N/A,,Overcast,0,2013-02-07 16:40:00
10:53 AM,52.0,37.9,59,29.97,9.0,South,3.5,-,N/A,,Overcast,170,2013-02-07 16:53:00
11:53 AM,55.0,41.0,59,29.96,10.0,SSW,4.6,-,N/A,,Overcast,200,2013-02-07 17:53:00
12:09 PM,55.4,42.8,63,29.94,10.0,SSW,5.8,-,N/A,,Overcast,200,2013-02-07 18:09:00
12:44 PM,57.2,44.6,63,29.92,10.0,SSW,5.8,-,N/A,,Overcast,200,2013-02-07 18:44:00
12:53 PM,57.0,43.0,59,29.92,10.0,SSW,5.8,-,N/A,,Mostly Cloudy,210,2013-02-07 18:53:00
1:53 PM,60.1,48.0,64,29.89,10.0,South,4.6,-,N/A,,Mostly Cloudy,170,2013-02-07 19:53:00
2:42 PM,62.6,51.8,68,29.87,10.0,SSW,9.2,-,N/A,,Mostly Cloudy,210,2013-02-07 20:42:00
2:53 PM,62.1,51.1,67,29.88,10.0,SW,6.9,-,N/A,,Overcast,220,2013-02-07 20:53:00
3:32 PM,60.8,53.6,77,29.87,10.0,SSW,11.5,-,N/A,,Mostly Cloudy,200,2013-02-07 21:32:00
3:53 PM,61.0,54.0,78,29.87,10.0,SSW,9.2,-,N/A,,Overcast,210,2013-02-07 21:53:00
4:53 PM,60.1,53.1,78,29.87,10.0,SSW,5.8,-,N/A,,Overcast,200,2013-02-07 22:53:00
5:53 PM,59.0,54.0,83,29.87,10.0,Calm,Calm,-,0.00,Rain,Light Rain,0,2013-02-07 23:53:00
6:53 PM,57.9,55.0,90,29.88,6.0,NW,6.9,-,0.01,Rain,Light Rain,310,2013-02-08 00:53:00
7:02 PM,57.2,55.4,94,29.88,5.0,West,3.5,-,0.01,Rain,Light Rain,280,2013-02-08 01:02:00
7:45 PM,57.2,53.6,88,29.88,7.0,WNW,3.5,-,0.04,Rain,Light Rain,300,2013-02-08 01:45:00
7:53 PM,55.9,54.0,93,29.89,4.0,NW,5.8,-,0.04,Rain,Rain,310,2013-02-08 01:53:00
7:59 PM,55.4,53.6,94,29.89,1.8,WNW,6.9,-,0.05,Rain,Heavy Rain,300,2013-02-08 01:59:00
8:11 PM,55.4,53.6,94,29.89,2.5,NW,6.9,-,0.11,Rain,Rain,310,2013-02-08 02:11:00
8:17 PM,55.4,53.6,94,29.89,3.0,NW,8.1,-,0.12,Rain,Light Rain,310,2013-02-08 02:17:00
8:53 PM,55.9,53.1,90,29.91,4.0,Calm,Calm,-,0.21,Rain,Rain,0,2013-02-08 02:53:00
9:53 PM,55.0,51.1,86,29.91,10.0,North,11.5,-,0.07,,Overcast,350,2013-02-08 03:53:00
10:13 PM,55.4,50.0,82,29.92,10.0,NNW,13.8,20.7,N/A,,Overcast,330,2013-02-08 04:13:00
10:46 PM,53.6,48.2,82,29.93,10.0,NNW,11.5,-,N/A,,Overcast,340,2013-02-08 04:46:00
10:53 PM,54.0,48.0,80,29.94,10.0,NNW,12.7,-,N/A,,Overcast,340,2013-02-08 04:53:00
11:01 PM,53.6,48.2,82,29.94,10.0,NNW,12.7,-,N/A,,Overcast,340,2013-02-08 05:01:00
11:42 PM,51.8,44.6,76,29.96,10.0,North,16.1,23.0,N/A,,Overcast,360,2013-02-08 05:42:00
11:53 PM,52.0,45.0,77,29.96,10.0,NNW,17.3,23.0,N/A,,Overcast,340,2013-02-08 05:53:00